Kumamoto, Japan
Current Conditions -  °F | °C
As of 1:00 PM on Monday 22 Dec 2014 (Local Time) from RJFT Reporting Station
Broken Clouds Broken Clouds  
Wind Chill: 34°   Ceiling: 3500
Heat Index: 39°   Visibility: 6mi
Dew Point: 23°   Wind: 7mph
Humidity: 52%   Direction: 310°NW
Pressure: 30.21"   Gusts: 20mph
Location:  32.8°N, 130.71°E
Report Text: RJFT 220400Z 31006G17KT 270V360 9999 BKN035 04/M05 Q1023
Loading
Personal Weather Stations






























Interactive Weather Map New forecast layout! Learn more

10-Day Weather Forecast

Advertisements
Track Severe Weather on mobile